Robijn — PBEJ — position and weather

sailwx.info

Track history (hours):
 
Tides and Currents Weather Stations Pressure Air Temp Water Temp Dewpoint Dewpoint Depression Visibility Wind Speed Wind Dir Waves Ship Positions

Robijn

Last reported at 2014-Sep-20 23:28 UTC. Time now 2014-Sep-21 00:00 UTC.
Position N 56°37' E 017°47'.

Length 90 m; draft 5.1 m.

Type: Cargo ship. MMSI: 245909000.

Date/timePositionNaut miles runAvg speedWind from/ knotsBaromVisibWave heightAir tempDewpointWater temp
2014-Sep-20 23:28N 56°37' E 017°47'8 9.0
2014-Sep-20 22:32N 56°42' E 017°59'9 9.1
2014-Sep-20 21:34N 56°47' E 018°12'9 9.3
2014-Sep-20 20:33N 56°53' E 018°25'9 9.3
2014-Sep-20 19:32N 57°00' E 018°37'9 9.2
2014-Sep-20 18:33N 57°07' E 018°49'11 9.2
2014-Sep-20 17:22N 57°15' E 019°02'9 9.1
2014-Sep-20 16:24N 57°21' E 019°14'9 9.1
2014-Sep-20 15:24N 57°28' E 019°25'160 8.9
2014-Sep-19 21:33N 59°19' E 023°04'9 9.4
2014-Sep-19 20:32N 59°23' E 023°20'10 9.2
2014-Sep-19 19:28N 59°28' E 023°38'19 9.2
2014-Sep-19 17:22N 59°36' E 024°12'7 9.1
2014-Sep-19 16:33N 59°39' E 024°25'9 9.3
2014-Sep-19 15:33N 59°43' E 024°42'13 9.1
2014-Sep-19 14:06N 59°44' E 025°08'5 9.0
2014-Sep-19 13:33N 59°44' E 025°18'9 9.4
2014-Sep-19 12:33N 59°44' E 025°36'10 9.4
2014-Sep-19 11:30N 59°44' E 025°56'9 9.4
2014-Sep-19 10:33N 59°44' E 026°14'9 9.2
2014-Sep-19 09:33N 59°38' E 026°28'7 6.9
2014-Sep-19 08:30N 59°31' E 026°33'0 0.0
2014-Sep-18 17:03N 59°31' E 026°33'0 0.0
2014-Sep-18 16:33N 59°31' E 026°33'0 0.0
2014-Sep-18 15:33N 59°31' E 026°33'9 0.7
2014-Sep-18 03:24N 59°40' E 026°27'7 8.3
2014-Sep-18 02:33N 59°43' E 026°15'10 9.3
2014-Sep-18 01:30N 59°44' E 025°56'11 9.3
2014-Sep-18 00:19N 59°44' E 025°34'7 9.4
2014-Sep-17 23:33N 59°44' E 025°20'11 9.8
2014-Sep-17 22:25N 59°44' E 024°58'8 9.5
2014-Sep-17 21:33N 59°43' E 024°41'10 9.5
2014-Sep-17 20:33N 59°42' E 024°23'8 8.4
2014-Sep-17 19:33N 59°48' E 024°12'9 8.6
2014-Sep-17 18:33N 59°57' E 024°08'8 0.2
2014-Sep-16 06:07N 60°01' E 023°56'5 7.1
2014-Sep-16 05:25N 59°58' E 024°04'6 7.4
2014-Sep-16 04:33N 59°53' E 024°10'10 9.6
2014-Sep-16 03:33N 59°47' E 023°55'10 9.7
2014-Sep-16 02:33N 59°43' E 023°37'9 9.4
2014-Sep-16 01:33N 59°38' E 023°21'191 9.4
2014-Sep-15 05:17N 57°19' E 019°12'7 9.6
2014-Sep-15 04:32N 57°13' E 019°03'10 9.4
2014-Sep-15 03:29N 57°06' E 018°52'9 9.3
2014-Sep-15 02:33N 56°59' E 018°43'9 9.3
2014-Sep-15 01:33N 56°51' E 018°32'10 9.2
2014-Sep-15 00:27N 56°44' E 018°19'8 9.3
2014-Sep-14 23:34N 56°39' E 018°07'11 9.9
2014-Sep-14 22:30N 56°33' E 017°52'11 9.9
2014-Sep-14 21:25N 56°27' E 017°36'11 9.8
2014-Sep-14 20:20N 56°20' E 017°21'12 9.9
2014-Sep-14 19:05N 56°12' E 017°04'7 9.7
2014-Sep-14 18:22N 56°08' E 016°54'12 9.4
2014-Sep-14 17:04N 56°01' E 016°36'6 9.1
2014-Sep-14 16:24N 55°58' E 016°27'8 9.3
2014-Sep-14 15:30N 55°54' E 016°14'28 9.5
2014-Sep-14 12:32N 55°40' E 015°30'9 9.5
2014-Sep-14 11:34N 55°35' E 015°16'9 9.1
2014-Sep-14 10:33N 55°31' E 015°02'9 8.8
2014-Sep-14 09:34N 55°26' E 014°49'8 8.1
2014-Sep-14 08:34N 55°22' E 014°37'8 8.1
2014-Sep-14 07:33N 55°15' E 014°27'8 8.3
2014-Sep-14 06:33N 55°09' E 014°18'9 9.0
2014-Sep-14 05:33N 55°02' E 014°08'10 9.8
2014-Sep-14 04:33N 54°58' E 013°53'9 9.3
2014-Sep-14 03:34N 54°54' E 013°38'9 9.4
2014-Sep-14 02:33N 54°50' E 013°23'9 9.0
2014-Sep-14 01:34N 54°46' E 013°09'37 9.1
2014-Sep-13 21:34N 54°28' E 012°14'8 8.0
2014-Sep-13 20:34N 54°25' E 012°02'9 8.8
2014-Sep-13 19:34N 54°25' E 011°47'9 9.3
2014-Sep-13 18:34N 54°29' E 011°32'9 9.4
2014-Sep-13 17:34N 54°32' E 011°17'9 9.0
2014-Sep-13 16:33N 54°34' E 011°01'55 6.9
2014-Sep-13 08:33N 54°13' E 009°35'9 8.6
2014-Sep-13 07:33N 54°09' E 009°21'8 8.6
2014-Sep-13 06:33N 54°01' E 009°18'8 8.4
2014-Sep-13 05:33N 53°54' E 009°09'2 1.9
2014-Sep-13 04:33N 53°53' E 009°06'9 9.1
2014-Sep-13 03:34N 53°50' E 008°51'9 9.3
2014-Sep-13 02:33N 53°56' E 008°39'10 9.6
2014-Sep-13 01:33N 53°59' E 008°24'9 9.2
2014-Sep-13 00:34N 53°59' E 008°08'12 9.4
2014-Sep-12 23:18N 53°56' E 007°48'9 9.4
2014-Sep-12 22:23N 53°54' E 007°34'25 8.7
2014-Sep-12 19:33N 53°46' E 006°55'8 7.4
2014-Sep-12 18:32N 53°43' E 006°43'7 7.2
2014-Sep-12 17:33N 53°41' E 006°32'5 5.0
2014-Sep-12 16:33N 53°37' E 006°27'1110.7
2014-Sep-12 15:33N 53°33' E 006°43'1110.8
2014-Sep-12 14:34N 53°25' E 006°56'6 5.9
2014-Sep-12 13:32N 53°19' E 006°58'1 0.2
2014-Sep-12 06:16N 53°20' E 006°56'0 0.0
2014-Sep-11 19:04N 53°20' E 006°56'0 0.0
2014-Sep-11 13:28N 53°20' E 006°56'0 0.0
2014-Sep-11 12:31N 53°20' E 006°56'0 0.0
2014-Sep-11 11:31N 53°20' E 006°56'0 0.0
2014-Sep-11 10:31N 53°20' E 006°56'0 0.0
2014-Sep-11 09:31N 53°20' E 006°56'0 0.0
2014-Sep-11 08:31N 53°20' E 006°56'0 0.0
2014-Sep-11 07:31N 53°20' E 006°56'0 0.0
2014-Sep-11 06:31N 53°20' E 006°56'0 0.0
2014-Sep-11 05:31N 53°20' E 006°56'0 0.0
2014-Sep-11 04:31N 53°20' E 006°56'0 0.0
2014-Sep-11 03:31N 53°20' E 006°56'0 0.0
2014-Sep-11 02:31N 53°20' E 006°56'0 0.0
2014-Sep-11 01:31N 53°20' E 006°56'0 0.0
2014-Sep-11 00:31N 53°20' E 006°56'0 0.0
2014-Sep-10 23:31N 53°20' E 006°56'  
Track history (hours):
 
Tides and Currents Weather Stations Pressure Air Temp Water Temp Dewpoint Dewpoint Depression Visibility Wind Speed Wind Dir Waves Ship Positions

Robijn

Last reported at 2014-Sep-20 23:28 UTC. Time now 2014-Sep-21 00:00 UTC.
Position N 56°37' E 017°47'.

Length 90 m; draft 5.1 m.

Type: Cargo ship. MMSI: 245909000.

Date/timePositionNaut miles runAvg speedWind from/ knotsBaromVisibWave heightAir tempDewpointWater temp
2014-Sep-20 23:28N 56°37' E 017°47'8 9.0
2014-Sep-20 22:32N 56°42' E 017°59'9 9.1
2014-Sep-20 21:34N 56°47' E 018°12'9 9.3
2014-Sep-20 20:33N 56°53' E 018°25'9 9.3
2014-Sep-20 19:32N 57°00' E 018°37'9 9.2
2014-Sep-20 18:33N 57°07' E 018°49'11 9.2
2014-Sep-20 17:22N 57°15' E 019°02'9 9.1
2014-Sep-20 16:24N 57°21' E 019°14'9 9.1
2014-Sep-20 15:24N 57°28' E 019°25'160 8.9
2014-Sep-19 21:33N 59°19' E 023°04'9 9.4
2014-Sep-19 20:32N 59°23' E 023°20'10 9.2
2014-Sep-19 19:28N 59°28' E 023°38'19 9.2
2014-Sep-19 17:22N 59°36' E 024°12'7 9.1
2014-Sep-19 16:33N 59°39' E 024°25'9 9.3
2014-Sep-19 15:33N 59°43' E 024°42'13 9.1
2014-Sep-19 14:06N 59°44' E 025°08'5 9.0
2014-Sep-19 13:33N 59°44' E 025°18'9 9.4
2014-Sep-19 12:33N 59°44' E 025°36'10 9.4
2014-Sep-19 11:30N 59°44' E 025°56'9 9.4
2014-Sep-19 10:33N 59°44' E 026°14'9 9.2
2014-Sep-19 09:33N 59°38' E 026°28'7 6.9
2014-Sep-19 08:30N 59°31' E 026°33'0 0.0
2014-Sep-18 17:03N 59°31' E 026°33'0 0.0
2014-Sep-18 16:33N 59°31' E 026°33'0 0.0
2014-Sep-18 15:33N 59°31' E 026°33'9 0.7
2014-Sep-18 03:24N 59°40' E 026°27'7 8.3
2014-Sep-18 02:33N 59°43' E 026°15'10 9.3
2014-Sep-18 01:30N 59°44' E 025°56'11 9.3
2014-Sep-18 00:19N 59°44' E 025°34'7 9.4
2014-Sep-17 23:33N 59°44' E 025°20'11 9.8
2014-Sep-17 22:25N 59°44' E 024°58'8 9.5
2014-Sep-17 21:33N 59°43' E 024°41'10 9.5
2014-Sep-17 20:33N 59°42' E 024°23'8 8.4
2014-Sep-17 19:33N 59°48' E 024°12'9 8.6
2014-Sep-17 18:33N 59°57' E 024°08'8 0.2
2014-Sep-16 06:07N 60°01' E 023°56'5 7.1
2014-Sep-16 05:25N 59°58' E 024°04'6 7.4
2014-Sep-16 04:33N 59°53' E 024°10'10 9.6
2014-Sep-16 03:33N 59°47' E 023°55'10 9.7
2014-Sep-16 02:33N 59°43' E 023°37'9 9.4
2014-Sep-16 01:33N 59°38' E 023°21'191 9.4
2014-Sep-15 05:17N 57°19' E 019°12'7 9.6
2014-Sep-15 04:32N 57°13' E 019°03'10 9.4
2014-Sep-15 03:29N 57°06' E 018°52'9 9.3
2014-Sep-15 02:33N 56°59' E 018°43'9 9.3
2014-Sep-15 01:33N 56°51' E 018°32'10 9.2
2014-Sep-15 00:27N 56°44' E 018°19'8 9.3
2014-Sep-14 23:34N 56°39' E 018°07'11 9.9
2014-Sep-14 22:30N 56°33' E 017°52'11 9.9
2014-Sep-14 21:25N 56°27' E 017°36'11 9.8
2014-Sep-14 20:20N 56°20' E 017°21'12 9.9
2014-Sep-14 19:05N 56°12' E 017°04'7 9.7
2014-Sep-14 18:22N 56°08' E 016°54'12 9.4
2014-Sep-14 17:04N 56°01' E 016°36'6 9.1
2014-Sep-14 16:24N 55°58' E 016°27'8 9.3
2014-Sep-14 15:30N 55°54' E 016°14'28 9.5
2014-Sep-14 12:32N 55°40' E 015°30'9 9.5
2014-Sep-14 11:34N 55°35' E 015°16'9 9.1
2014-Sep-14 10:33N 55°31' E 015°02'9 8.8
2014-Sep-14 09:34N 55°26' E 014°49'8 8.1
2014-Sep-14 08:34N 55°22' E 014°37'8 8.1
2014-Sep-14 07:33N 55°15' E 014°27'8 8.3
2014-Sep-14 06:33N 55°09' E 014°18'9 9.0
2014-Sep-14 05:33N 55°02' E 014°08'10 9.8
2014-Sep-14 04:33N 54°58' E 013°53'9 9.3
2014-Sep-14 03:34N 54°54' E 013°38'9 9.4
2014-Sep-14 02:33N 54°50' E 013°23'9 9.0
2014-Sep-14 01:34N 54°46' E 013°09'37 9.1
2014-Sep-13 21:34N 54°28' E 012°14'8 8.0
2014-Sep-13 20:34N 54°25' E 012°02'9 8.8
2014-Sep-13 19:34N 54°25' E 011°47'9 9.3
2014-Sep-13 18:34N 54°29' E 011°32'9 9.4
2014-Sep-13 17:34N 54°32' E 011°17'9 9.0
2014-Sep-13 16:33N 54°34' E 011°01'55 6.9
2014-Sep-13 08:33N 54°13' E 009°35'9 8.6
2014-Sep-13 07:33N 54°09' E 009°21'8 8.6
2014-Sep-13 06:33N 54°01' E 009°18'8 8.4
2014-Sep-13 05:33N 53°54' E 009°09'2 1.9
2014-Sep-13 04:33N 53°53' E 009°06'9 9.1
2014-Sep-13 03:34N 53°50' E 008°51'9 9.3
2014-Sep-13 02:33N 53°56' E 008°39'10 9.6
2014-Sep-13 01:33N 53°59' E 008°24'9 9.2
2014-Sep-13 00:34N 53°59' E 008°08'12 9.4
2014-Sep-12 23:18N 53°56' E 007°48'9 9.4
2014-Sep-12 22:23N 53°54' E 007°34'25 8.7
2014-Sep-12 19:33N 53°46' E 006°55'8 7.4
2014-Sep-12 18:32N 53°43' E 006°43'7 7.2
2014-Sep-12 17:33N 53°41' E 006°32'5 5.0
2014-Sep-12 16:33N 53°37' E 006°27'1110.7
2014-Sep-12 15:33N 53°33' E 006°43'1110.8
2014-Sep-12 14:34N 53°25' E 006°56'6 5.9
2014-Sep-12 13:32N 53°19' E 006°58'1 0.2
2014-Sep-12 06:16N 53°20' E 006°56'0 0.0
2014-Sep-11 19:04N 53°20' E 006°56'0 0.0
2014-Sep-11 13:28N 53°20' E 006°56'0 0.0
2014-Sep-11 12:31N 53°20' E 006°56'0 0.0
2014-Sep-11 11:31N 53°20' E 006°56'0 0.0
2014-Sep-11 10:31N 53°20' E 006°56'0 0.0
2014-Sep-11 09:31N 53°20' E 006°56'0 0.0
2014-Sep-11 08:31N 53°20' E 006°56'0 0.0
2014-Sep-11 07:31N 53°20' E 006°56'0 0.0
2014-Sep-11 06:31N 53°20' E 006°56'0 0.0
2014-Sep-11 05:31N 53°20' E 006°56'0 0.0
2014-Sep-11 04:31N 53°20' E 006°56'0 0.0
2014-Sep-11 03:31N 53°20' E 006°56'0 0.0
2014-Sep-11 02:31N 53°20' E 006°56'0 0.0
2014-Sep-11 01:31N 53°20' E 006°56'0 0.0
2014-Sep-11 00:31N 53°20' E 006°56'0 0.0
2014-Sep-10 23:31N 53°20' E 006°56'  

Dump ship's entire track history